createdAt,value
2017-12-30T00:00:39.015Z,0.50
2017-12-30T00:03:08.091Z,0.50
2017-12-30T00:05:36.391Z,0.50
2017-12-30T00:08:05.453Z,0.60
2017-12-30T00:10:33.748Z,0.60
2017-12-30T00:13:02.053Z,0.60
2017-12-30T00:15:30.334Z,0.60
2017-12-30T00:17:58.625Z,0.60
2017-12-30T00:20:26.937Z,0.60
2017-12-30T00:22:55.242Z,0.70
2017-12-30T00:25:24.296Z,0.70
2017-12-30T00:27:52.597Z,0.70
2017-12-30T00:30:20.857Z,0.80
2017-12-30T00:32:49.196Z,0.80
2017-12-30T00:35:17.561Z,0.80
2017-12-30T00:37:45.904Z,0.80
2017-12-30T00:40:14.266Z,0.90
2017-12-30T00:42:43.397Z,0.90
2017-12-30T00:45:11.807Z,0.90
2017-12-30T00:47:40.115Z,0.90
2017-12-30T00:50:08.524Z,1.00
2017-12-30T00:52:37.687Z,1.00
2017-12-30T00:55:06.092Z,1.00
2017-12-30T00:57:35.249Z,1.10
2017-12-30T01:00:03.605Z,1.10
2017-12-30T01:02:31.908Z,1.20
2017-12-30T01:05:00.162Z,1.20
2017-12-30T01:07:28.433Z,1.20
2017-12-30T01:09:56.701Z,1.20
2017-12-30T01:12:24.974Z,1.20
2017-12-30T01:14:53.250Z,1.30
2017-12-30T01:17:21.520Z,1.30
2017-12-30T01:19:49.797Z,1.30
2017-12-30T01:22:18.069Z,1.40
2017-12-30T01:24:46.345Z,1.40
2017-12-30T01:27:14.627Z,1.40
2017-12-30T01:29:42.901Z,1.50
2017-12-30T01:32:11.177Z,1.50
2017-12-30T01:34:39.443Z,1.50
2017-12-30T01:37:07.788Z,1.50
2017-12-30T01:39:36.083Z,1.50
2017-12-30T01:42:04.363Z,1.60
2017-12-30T01:44:33.432Z,1.60
2017-12-30T01:47:01.752Z,1.70
2017-12-30T01:49:30.074Z,1.70
2017-12-30T01:51:58.350Z,1.70
2017-12-30T01:54:26.656Z,1.80
2017-12-30T01:56:55.008Z,1.80
2017-12-30T01:59:23.337Z,1.80
2017-12-30T02:01:51.656Z,1.80
2017-12-30T02:04:19.949Z,1.80
2017-12-30T02:06:48.312Z,1.80
2017-12-30T02:09:16.710Z,1.80
2017-12-30T02:11:45.394Z,1.80
2017-12-30T02:14:13.738Z,1.80
2017-12-30T02:16:42.209Z,1.80
2017-12-30T02:19:14.378Z,1.90
2017-12-30T02:21:42.735Z,1.90
2017-12-30T02:24:11.002Z,1.80
2017-12-30T02:26:39.269Z,1.80
2017-12-30T02:29:08.309Z,1.80
2017-12-30T02:31:36.578Z,1.80
2017-12-30T02:34:04.843Z,1.80
2017-12-30T02:36:33.201Z,1.90
2017-12-30T02:39:02.277Z,1.90
2017-12-30T02:41:30.564Z,1.90
2017-12-30T02:43:58.840Z,2.00
2017-12-30T02:46:27.868Z,2.00
2017-12-30T02:48:56.146Z,2.00
2017-12-30T02:51:24.416Z,2.00
2017-12-30T02:53:52.719Z,2.00
2017-12-30T02:56:21.074Z,2.00
2017-12-30T02:58:49.373Z,2.00
2017-12-30T03:01:17.661Z,1.90
2017-12-30T03:03:45.984Z,1.90
2017-12-30T03:06:14.291Z,1.90
2017-12-30T03:08:42.617Z,1.90
2017-12-30T03:11:11.667Z,1.90
2017-12-30T03:13:39.959Z,1.90
2017-12-30T03:16:08.246Z,2.00
2017-12-30T03:18:36.557Z,1.90
2017-12-30T03:21:05.632Z,1.90
2017-12-30T03:23:33.965Z,1.90
2017-12-30T03:26:02.282Z,2.00
2017-12-30T03:28:31.377Z,1.90
2017-12-30T03:31:00.480Z,1.90
2017-12-30T03:33:29.580Z,2.00
2017-12-30T03:35:58.677Z,1.90
2017-12-30T03:38:27.757Z,1.90
2017-12-30T03:40:56.066Z,1.90
2017-12-30T03:43:24.401Z,2.00
2017-12-30T03:45:52.734Z,2.00
2017-12-30T03:48:21.815Z,1.90
2017-12-30T03:50:50.127Z,1.90
2017-12-30T03:53:18.437Z,1.90
2017-12-30T03:55:46.740Z,1.90
2017-12-30T03:58:15.788Z,1.90
2017-12-30T04:00:44.084Z,1.90
2017-12-30T04:03:12.371Z,2.00
2017-12-30T04:05:41.443Z,2.00
2017-12-30T04:08:09.738Z,2.00
2017-12-30T04:10:38.846Z,2.00
2017-12-30T04:13:07.129Z,2.00
2017-12-30T04:15:35.410Z,2.00
2017-12-30T04:18:04.765Z,2.00
2017-12-30T04:20:33.067Z,2.10
2017-12-30T04:23:02.104Z,2.00
2017-12-30T04:25:30.387Z,2.00
2017-12-30T04:27:58.666Z,2.00
2017-12-30T04:30:26.951Z,2.10
2017-12-30T04:32:55.282Z,2.10
2017-12-30T04:35:23.580Z,2.10
2017-12-30T04:37:51.889Z,2.10
2017-12-30T04:40:20.182Z,2.00
2017-12-30T04:42:48.476Z,2.10
2017-12-30T04:45:17.540Z,2.10
2017-12-30T04:47:45.850Z,2.10
2017-12-30T04:50:14.916Z,2.20
2017-12-30T04:52:43.231Z,2.20
2017-12-30T04:55:11.521Z,2.20
2017-12-30T04:57:39.843Z,2.20
2017-12-30T05:00:08.156Z,2.10
2017-12-30T05:02:36.461Z,2.10
2017-12-30T05:05:04.769Z,2.10
2017-12-30T05:07:33.096Z,2.10
2017-12-30T05:10:01.487Z,2.10
2017-12-30T05:12:29.806Z,2.00
2017-12-30T05:14:58.096Z,2.00
2017-12-30T05:17:27.154Z,2.10
2017-12-30T05:19:55.443Z,2.10
2017-12-30T05:22:23.784Z,2.10
2017-12-30T05:24:52.080Z,2.10
2017-12-30T05:27:20.384Z,2.20
2017-12-30T05:29:48.721Z,2.10
2017-12-30T05:32:17.041Z,2.20
2017-12-30T05:34:45.362Z,2.30
2017-12-30T05:37:13.689Z,2.30
2017-12-30T05:39:42.034Z,2.30
2017-12-30T05:42:10.369Z,2.30
2017-12-30T05:44:38.706Z,2.30
2017-12-30T05:47:07.055Z,2.30
2017-12-30T05:49:35.374Z,2.30
2017-12-30T05:52:03.704Z,2.40
2017-12-30T05:54:32.091Z,2.40
2017-12-30T05:57:00.452Z,2.30
2017-12-30T05:59:28.795Z,2.30
2017-12-30T06:01:57.152Z,2.30
2017-12-30T06:04:25.489Z,2.30
2017-12-30T06:06:53.871Z,2.20
2017-12-30T06:09:22.221Z,2.20
2017-12-30T06:11:51.309Z,2.20
2017-12-30T06:14:20.399Z,2.20
2017-12-30T06:16:48.725Z,2.20
2017-12-30T06:19:17.042Z,2.20
2017-12-30T06:21:45.396Z,2.20
2017-12-30T06:24:13.753Z,2.20
2017-12-30T06:26:42.097Z,2.20
2017-12-30T06:29:11.204Z,2.20
2017-12-30T06:31:39.557Z,2.20
2017-12-30T06:34:07.881Z,2.20
2017-12-30T06:36:36.213Z,2.30
2017-12-30T06:39:05.324Z,2.30
2017-12-30T06:41:33.676Z,2.30
2017-12-30T06:44:02.014Z,2.30
2017-12-30T06:46:30.336Z,2.30
2017-12-30T06:48:58.722Z,2.20
2017-12-30T06:51:27.841Z,2.20
2017-12-30T06:53:56.234Z,2.20
2017-12-30T06:56:24.631Z,2.30
2017-12-30T06:58:52.987Z,2.30
2017-12-30T07:01:21.322Z,2.30
2017-12-30T07:03:49.691Z,2.40
2017-12-30T07:06:18.085Z,2.40
2017-12-30T07:08:46.532Z,2.40
2017-12-30T07:11:14.917Z,2.40
2017-12-30T07:13:43.278Z,2.50
2017-12-30T07:16:11.668Z,2.50
2017-12-30T07:18:40.018Z,2.50
2017-12-30T07:21:08.390Z,2.60
2017-12-30T07:23:36.743Z,2.60
2017-12-30T07:26:05.849Z,2.60
2017-12-30T07:28:34.192Z,2.60
2017-12-30T07:31:02.540Z,2.60
2017-12-30T07:33:30.885Z,2.60
2017-12-30T07:35:59.204Z,2.50
2017-12-30T07:38:27.548Z,2.50
2017-12-30T07:40:56.400Z,2.50
2017-12-30T07:43:24.715Z,2.50
2017-12-30T07:45:53.042Z,2.50
2017-12-30T07:48:21.353Z,2.50
2017-12-30T07:50:50.453Z,2.50
2017-12-30T07:53:18.805Z,2.50
2017-12-30T07:55:47.089Z,2.40
2017-12-30T07:58:15.380Z,2.30
2017-12-30T08:00:44.415Z,2.30
2017-12-30T08:03:12.672Z,2.30
2017-12-30T08:05:40.938Z,2.30
2017-12-30T08:08:09.199Z,2.30
2017-12-30T08:10:38.233Z,2.20
2017-12-30T08:13:06.495Z,2.20
2017-12-30T08:15:34.767Z,2.20
2017-12-30T08:18:03.032Z,2.10
2017-12-30T08:20:31.311Z,2.10
2017-12-30T08:22:59.578Z,2.00
2017-12-30T08:25:27.849Z,2.00
2017-12-30T08:27:56.897Z,2.10
2017-12-30T08:30:25.180Z,2.10
2017-12-30T08:32:53.443Z,2.10
2017-12-30T08:35:21.709Z,2.10
2017-12-30T08:37:50.060Z,2.10
2017-12-30T08:40:18.360Z,2.10
2017-12-30T08:42:46.666Z,2.10
2017-12-30T08:45:15.776Z,2.10
2017-12-30T08:47:44.855Z,2.00
2017-12-30T08:50:13.218Z,2.00
2017-12-30T08:52:41.596Z,2.00
2017-12-30T08:55:10.648Z,2.00
2017-12-30T08:57:40.185Z,1.90
2017-12-30T09:00:09.415Z,2.00
2017-12-30T09:03:04.115Z,1.90
2017-12-30T09:05:33.241Z,1.90
2017-12-30T09:08:01.594Z,1.90
2017-12-30T09:10:29.952Z,1.80
2017-12-30T09:12:58.324Z,1.80
2017-12-30T09:15:26.681Z,1.80
2017-12-30T09:17:55.026Z,1.80
2017-12-30T09:20:23.399Z,1.80
2017-12-30T09:22:52.483Z,1.80
2017-12-30T09:25:21.646Z,1.90
2017-12-30T09:27:49.972Z,1.90
2017-12-30T09:30:18.347Z,1.90
2017-12-30T09:32:47.438Z,2.00
2017-12-30T09:35:16.569Z,2.00
2017-12-30T09:37:44.914Z,2.00
2017-12-30T09:40:13.280Z,2.00
2017-12-30T09:42:42.409Z,2.00
2017-12-30T09:45:10.763Z,2.00
2017-12-30T09:47:39.894Z,2.00
2017-12-30T09:50:08.279Z,2.00
2017-12-30T09:52:36.602Z,2.10
2017-12-30T09:55:05.733Z,2.10
2017-12-30T09:57:34.104Z,2.10
2017-12-30T10:00:02.436Z,2.10
2017-12-30T10:02:30.781Z,2.20
2017-12-30T10:04:59.101Z,2.20
2017-12-30T10:07:27.402Z,2.30
2017-12-30T10:09:56.526Z,2.40
2017-12-30T10:12:42.886Z,2.30
2017-12-30T10:15:11.907Z,2.40
2017-12-30T10:17:42.606Z,2.40
2017-12-30T10:20:13.540Z,2.40
2017-12-30T10:22:41.907Z,2.40
2017-12-30T10:25:11.047Z,2.50
2017-12-30T10:27:40.233Z,2.50
2017-12-30T10:30:12.735Z,2.50
2017-12-30T10:32:51.665Z,2.50
2017-12-30T10:35:24.706Z,2.50
2017-12-30T10:37:53.020Z,2.60
2017-12-30T10:40:21.384Z,2.60
2017-12-30T10:42:50.469Z,2.60
2017-12-30T10:45:38.528Z,2.70
2017-12-30T10:48:20.723Z,2.70
2017-12-30T10:53:59.852Z,2.70
2017-12-30T10:56:35.815Z,2.70
2017-12-30T11:13:00.591Z,2.90
2017-12-30T11:15:29.679Z,2.90
2017-12-30T11:17:58.003Z,2.90
2017-12-30T11:20:28.086Z,3.00
2017-12-30T11:23:00.118Z,3.00
2017-12-30T11:25:28.902Z,3.00
2017-12-30T11:27:57.933Z,3.00
2017-12-30T11:30:26.961Z,3.00
2017-12-30T11:32:55.227Z,3.00
2017-12-30T11:35:23.488Z,3.00
2017-12-30T11:37:52.815Z,3.00
2017-12-30T11:40:21.077Z,3.10
2017-12-30T11:42:49.337Z,3.10
2017-12-30T11:45:17.605Z,3.20
2017-12-30T11:47:46.627Z,3.20
2017-12-30T11:50:20.860Z,3.20
2017-12-30T11:56:21.857Z,3.30
2017-12-30T11:58:50.252Z,3.40
2017-12-30T12:01:23.801Z,3.60
2017-12-30T12:03:52.102Z,3.60
2017-12-30T12:06:20.375Z,3.70
2017-12-30T12:11:59.393Z,4.00
2017-12-30T12:14:27.660Z,4.00
2017-12-30T12:16:55.946Z,4.00
2017-12-30T12:19:24.186Z,4.10
2017-12-30T12:21:53.206Z,4.10
2017-12-30T12:24:21.474Z,4.10
2017-12-30T12:26:49.722Z,4.20
2017-12-30T12:29:18.771Z,4.30
2017-12-30T12:31:47.028Z,4.30
2017-12-30T12:34:15.285Z,4.30
2017-12-30T12:36:43.558Z,4.40
2017-12-30T12:39:11.818Z,4.50
2017-12-30T12:41:40.853Z,4.50
2017-12-30T12:44:09.119Z,4.50
2017-12-30T12:46:37.383Z,4.60
2017-12-30T12:49:05.637Z,4.60
2017-12-30T12:51:34.672Z,4.60
2017-12-30T12:54:02.938Z,4.60
2017-12-30T12:56:31.196Z,4.70
2017-12-30T12:59:00.224Z,4.70
2017-12-30T13:01:28.480Z,4.70
2017-12-30T13:03:56.768Z,4.70
2017-12-30T13:06:25.017Z,4.80
2017-12-30T13:08:53.331Z,4.80
2017-12-30T13:11:21.590Z,4.90
2017-12-30T13:13:49.857Z,4.90
2017-12-30T13:16:18.113Z,4.90
2017-12-30T13:18:47.150Z,5.00
2017-12-30T13:21:16.182Z,5.20
2017-12-30T13:23:44.435Z,5.10
2017-12-30T13:26:12.707Z,5.20
2017-12-30T13:28:40.960Z,5.30
2017-12-30T13:31:09.229Z,5.30
2017-12-30T13:33:37.633Z,5.40
2017-12-30T13:36:05.905Z,5.50
2017-12-30T13:38:34.187Z,5.60
2017-12-30T13:41:02.458Z,5.70
2017-12-30T13:43:30.722Z,5.70
2017-12-30T13:45:59.039Z,5.70
2017-12-30T13:48:27.293Z,5.80
2017-12-30T13:50:55.598Z,5.80
2017-12-30T13:53:23.878Z,5.90
2017-12-30T13:55:52.156Z,5.90
2017-12-30T13:58:20.770Z,6.00
2017-12-30T14:00:49.045Z,6.10
2017-12-30T14:03:17.323Z,6.10
2017-12-30T14:05:45.623Z,6.20
2017-12-30T14:08:13.886Z,6.30
2017-12-30T14:10:42.136Z,6.40
2017-12-30T14:13:11.169Z,6.50
2017-12-30T14:15:40.202Z,6.60
2017-12-30T14:18:09.238Z,6.70
2017-12-30T14:20:37.506Z,6.70
2017-12-30T14:23:07.503Z,6.80
2017-12-30T14:25:36.580Z,6.90
2017-12-30T14:28:04.840Z,6.90
2017-12-30T14:30:33.134Z,6.90
2017-12-30T14:33:01.401Z,7.00
2017-12-30T14:35:29.682Z,7.00
2017-12-30T14:37:58.000Z,7.10
2017-12-30T14:40:26.287Z,7.10
2017-12-30T14:42:54.558Z,7.10
2017-12-30T14:45:22.818Z,7.20
2017-12-30T14:47:51.086Z,7.30
2017-12-30T14:50:20.110Z,7.30
2017-12-30T14:52:48.384Z,7.30
2017-12-30T14:55:16.682Z,7.40
2017-12-30T14:57:44.982Z,7.40
2017-12-30T15:00:13.228Z,7.40
2017-12-30T15:02:41.503Z,7.50
2017-12-30T15:05:09.763Z,7.50
2017-12-30T15:07:38.047Z,7.60
2017-12-30T15:10:06.314Z,7.60
2017-12-30T15:12:34.571Z,7.70
2017-12-30T15:15:02.857Z,7.60
2017-12-30T15:17:31.120Z,7.70
2017-12-30T15:19:59.388Z,7.80
2017-12-30T15:22:28.447Z,7.80
2017-12-30T15:24:56.710Z,7.80
2017-12-30T15:27:24.961Z,7.80
2017-12-30T15:29:53.272Z,7.90
2017-12-30T15:32:21.525Z,8.00
2017-12-30T15:34:49.799Z,8.00
2017-12-30T15:37:18.067Z,8.00
2017-12-30T15:39:46.368Z,8.00
2017-12-30T15:42:14.634Z,8.00
2017-12-30T15:44:42.903Z,8.00
2017-12-30T15:47:11.203Z,8.00
2017-12-30T15:49:39.453Z,8.10
2017-12-30T15:52:07.732Z,8.10
2017-12-30T15:54:36.006Z,8.00
2017-12-30T15:57:04.272Z,8.00
2017-12-30T15:59:32.533Z,8.00
2017-12-30T16:02:00.795Z,8.00
2017-12-30T16:04:29.814Z,8.00
2017-12-30T16:06:58.116Z,8.00
2017-12-30T16:09:26.380Z,8.00
2017-12-30T16:11:54.650Z,8.10
2017-12-30T16:14:22.924Z,8.10
2017-12-30T16:16:51.218Z,8.10
2017-12-30T16:19:19.453Z,8.10
2017-12-30T16:21:47.728Z,8.20
2017-12-30T16:24:15.995Z,8.20
2017-12-30T16:26:45.059Z,8.20
2017-12-30T16:29:13.315Z,8.20
2017-12-30T16:31:41.582Z,8.40
2017-12-30T16:34:09.886Z,8.40
2017-12-30T16:36:38.142Z,8.40
2017-12-30T16:39:06.416Z,8.50
2017-12-30T16:41:34.680Z,8.50
2017-12-30T16:44:02.958Z,8.50
2017-12-30T16:46:31.212Z,8.50
2017-12-30T16:48:59.526Z,8.60
2017-12-30T16:51:27.774Z,8.50
2017-12-30T16:53:56.046Z,8.60
2017-12-30T16:56:24.319Z,8.60
2017-12-30T16:58:52.577Z,8.60
2017-12-30T17:01:20.861Z,8.70
2017-12-30T17:03:49.131Z,8.70
2017-12-30T17:06:17.406Z,8.70
2017-12-30T17:08:45.679Z,8.70
2017-12-30T17:11:14.012Z,8.70
2017-12-30T17:13:42.281Z,8.70
2017-12-30T17:16:10.563Z,8.70
2017-12-30T17:18:38.831Z,8.70
2017-12-30T17:21:07.127Z,8.70
2017-12-30T17:23:35.389Z,8.60
2017-12-30T17:26:03.662Z,8.60
2017-12-30T17:28:31.934Z,8.70
2017-12-30T17:31:00.252Z,8.80
2017-12-30T17:33:28.507Z,8.70
2017-12-30T17:35:56.772Z,8.80
2017-12-30T17:38:25.046Z,8.80
2017-12-30T17:40:54.077Z,8.70
2017-12-30T17:43:23.109Z,8.80
2017-12-30T17:45:51.412Z,8.80
2017-12-30T17:48:21.362Z,8.80
2017-12-30T17:50:50.384Z,8.90
2017-12-30T17:53:18.709Z,8.90
2017-12-30T17:55:47.030Z,9.00
2017-12-30T17:58:15.343Z,8.90
2017-12-30T18:00:43.663Z,9.00
2017-12-30T18:03:11.928Z,9.10
2017-12-30T18:05:40.236Z,9.30
2017-12-30T18:08:08.566Z,9.40
2017-12-30T18:10:36.858Z,9.40
2017-12-30T18:13:05.168Z,9.40
2017-12-30T18:15:33.497Z,9.50
2017-12-30T18:18:01.812Z,9.50
2017-12-30T18:20:30.876Z,9.60
2017-12-30T18:22:59.901Z,9.60
2017-12-30T18:25:29.024Z,9.80
2017-12-30T18:27:58.094Z,9.90
2017-12-30T18:30:26.392Z,9.90
2017-12-30T18:32:54.697Z,9.90
2017-12-30T18:35:23.006Z,9.90
2017-12-30T18:37:51.324Z,9.80
2017-12-30T18:40:19.580Z,9.90
2017-12-30T18:42:47.841Z,9.90
2017-12-30T18:45:16.950Z,10.00
2017-12-30T18:47:45.291Z,10.00
2017-12-30T18:50:13.612Z,10.00
2017-12-30T18:52:41.935Z,10.10
2017-12-30T18:55:10.248Z,10.00
2017-12-30T18:57:39.350Z,10.00
2017-12-30T19:00:08.408Z,9.90
2017-12-30T19:02:36.731Z,9.90
2017-12-30T19:05:05.033Z,9.90
2017-12-30T19:07:33.357Z,9.90
2017-12-30T19:10:02.433Z,10.00
2017-12-30T19:12:30.752Z,10.00
2017-12-30T19:14:59.058Z,10.10
2017-12-30T19:17:27.359Z,10.20
2017-12-30T19:19:55.659Z,10.20
2017-12-30T19:22:24.872Z,10.30
2017-12-30T19:24:53.952Z,10.20
2017-12-30T19:27:23.015Z,10.20
2017-12-30T19:29:51.320Z,10.20
2017-12-30T19:32:19.629Z,10.40
2017-12-30T19:34:47.932Z,10.30
2017-12-30T19:37:16.245Z,10.30
2017-12-30T19:39:44.557Z,10.20
2017-12-30T19:42:12.865Z,10.30
2017-12-30T19:44:41.195Z,10.30
2017-12-30T19:47:10.264Z,10.70
2017-12-30T19:49:38.590Z,10.70
2017-12-30T19:52:06.900Z,10.80
2017-12-30T19:54:35.219Z,10.80
2017-12-30T19:57:04.446Z,10.70
2017-12-30T19:59:32.814Z,10.70
2017-12-30T20:02:01.213Z,10.60
2017-12-30T20:04:29.537Z,10.60
2017-12-30T20:06:57.853Z,10.60
2017-12-30T20:09:26.157Z,10.70
2017-12-30T20:11:54.473Z,10.70
2017-12-30T20:14:23.548Z,10.70
2017-12-30T20:16:53.541Z,10.70
2017-12-30T20:19:21.945Z,10.80
2017-12-30T20:21:50.330Z,10.80
2017-12-30T20:24:18.715Z,10.80
2017-12-30T20:26:47.865Z,10.60
2017-12-30T20:29:16.171Z,10.60
2017-12-30T20:31:44.514Z,10.50
2017-12-30T20:34:12.939Z,10.50
2017-12-30T20:36:41.270Z,10.30
2017-12-30T20:39:09.629Z,10.30
2017-12-30T20:41:38.101Z,10.20
2017-12-30T20:44:06.529Z,10.20
2017-12-30T20:46:35.035Z,10.20
2017-12-30T20:49:03.391Z,10.00
2017-12-30T20:51:31.782Z,10.00
2017-12-30T20:54:00.139Z,10.00
2017-12-30T20:56:28.482Z,10.00
2017-12-30T20:58:56.848Z,10.00
2017-12-30T21:01:25.956Z,10.00
2017-12-30T21:03:54.326Z,10.00
2017-12-30T21:06:22.736Z,10.00
2017-12-30T21:08:51.148Z,10.00
2017-12-30T21:11:19.522Z,10.00
2017-12-30T21:13:47.898Z,10.10
2017-12-30T21:16:16.282Z,10.10
2017-12-30T21:18:44.666Z,10.10
2017-12-30T21:21:13.043Z,10.10
2017-12-30T21:23:41.452Z,10.10
2017-12-30T21:26:09.852Z,10.10
2017-12-30T21:28:38.246Z,10.10
2017-12-30T21:31:06.734Z,10.10
2017-12-30T21:33:35.170Z,10.10
2017-12-30T21:36:04.388Z,10.10
2017-12-30T21:41:44.760Z,10.00
2017-12-30T21:44:13.216Z,9.90
2017-12-30T21:46:41.732Z,9.90
2017-12-30T21:49:10.171Z,10.00
2017-12-30T21:51:39.326Z,10.00
2017-12-30T21:54:07.749Z,10.00
2017-12-30T21:56:36.936Z,10.00
2017-12-30T21:59:07.213Z,10.00
2017-12-30T22:01:35.626Z,10.00
2017-12-30T22:04:04.008Z,10.00
2017-12-30T22:06:32.422Z,10.00
2017-12-30T22:09:00.822Z,9.90
2017-12-30T22:11:29.220Z,9.80
2017-12-30T22:13:57.675Z,9.90
2017-12-30T22:16:26.119Z,10.00
2017-12-30T22:18:54.546Z,9.90
2017-12-30T22:21:24.820Z,9.90
2017-12-30T22:23:53.237Z,10.00
2017-12-30T22:26:21.755Z,9.90
2017-12-30T22:28:50.192Z,9.90
2017-12-30T22:31:18.564Z,9.90
2017-12-30T22:33:46.872Z,9.80
2017-12-30T22:36:15.181Z,9.80
2017-12-30T22:38:43.472Z,9.80
2017-12-30T22:41:11.777Z,9.80
2017-12-30T22:43:40.120Z,9.70
2017-12-30T22:46:09.213Z,9.70
2017-12-30T22:48:37.513Z,9.70
2017-12-30T22:51:06.578Z,9.70
2017-12-30T22:53:34.880Z,9.70
2017-12-30T22:56:03.970Z,9.80
2017-12-30T22:58:33.042Z,9.80
2017-12-30T23:01:06.872Z,9.80
2017-12-30T23:03:35.947Z,9.70
2017-12-30T23:06:04.264Z,9.70
2017-12-30T23:08:32.565Z,9.70
2017-12-30T23:11:00.869Z,9.80
2017-12-30T23:13:29.193Z,9.80
2017-12-30T23:15:57.501Z,9.80
2017-12-30T23:18:25.806Z,9.80
2017-12-30T23:20:54.101Z,9.80
2017-12-30T23:23:23.157Z,9.80
2017-12-30T23:25:51.465Z,9.80
2017-12-30T23:28:20.524Z,9.80
2017-12-30T23:30:49.601Z,9.80
2017-12-30T23:33:17.882Z,9.80
2017-12-30T23:35:46.181Z,9.80
2017-12-30T23:38:14.486Z,9.80
2017-12-30T23:40:43.568Z,9.80
2017-12-30T23:43:11.851Z,9.70
2017-12-30T23:45:40.164Z,9.80
2017-12-30T23:48:08.451Z,9.80
2017-12-30T23:50:36.742Z,9.80
2017-12-30T23:53:05.049Z,9.80
2017-12-30T23:55:33.358Z,9.70
2017-12-30T23:58:01.665Z,9.70
